createdAt,value
2022-08-07T00:00:24.568Z,25.23
2022-08-07T00:02:51.092Z,25.21
2022-08-07T00:05:20.434Z,25.19
2022-08-07T00:07:47.021Z,25.19
2022-08-07T00:10:27.108Z,25.20
2022-08-07T00:13:00.252Z,25.23
2022-08-07T00:15:38.470Z,25.23
2022-08-07T00:18:19.429Z,25.22
2022-08-07T00:20:47.716Z,25.19
2022-08-07T00:23:14.921Z,25.21
2022-08-07T00:25:51.801Z,25.20
2022-08-07T00:28:25.863Z,25.20
2022-08-07T00:31:00.892Z,25.18
2022-08-07T00:33:32.839Z,25.17
2022-08-07T00:36:00.211Z,25.19
2022-08-07T00:38:31.557Z,25.20
2022-08-07T00:40:58.684Z,25.21
2022-08-07T00:43:59.538Z,25.20
2022-08-07T00:46:12.654Z,25.22
2022-08-07T00:48:42.265Z,25.20
2022-08-07T00:51:09.683Z,25.21
2022-08-07T00:53:39.137Z,25.21
2022-08-07T00:56:17.192Z,25.20
2022-08-07T00:58:46.812Z,25.20
2022-08-07T01:01:14.433Z,25.20
2022-08-07T01:03:57.020Z,25.20
2022-08-07T01:06:28.710Z,25.18
2022-08-07T01:08:58.342Z,25.19
2022-08-07T01:12:27.708Z,25.17
2022-08-07T01:14:15.530Z,25.17
2022-08-07T01:16:47.184Z,25.17
2022-08-07T01:19:19.037Z,25.17
2022-08-07T01:21:46.708Z,25.18
2022-08-07T01:24:14.079Z,25.16
2022-08-07T01:26:45.302Z,25.16
2022-08-07T01:29:18.328Z,25.16
2022-08-07T01:31:48.262Z,25.15
2022-08-07T01:34:15.232Z,25.16
2022-08-07T01:36:41.790Z,25.14
2022-08-07T01:39:10.937Z,25.14
2022-08-07T01:41:38.985Z,25.13
2022-08-07T01:44:07.532Z,25.15
2022-08-07T01:46:34.453Z,25.11
2022-08-07T01:49:02.248Z,25.11
2022-08-07T01:52:03.970Z,25.12
2022-08-07T01:54:21.986Z,25.09
2022-08-07T01:57:08.437Z,25.10
2022-08-07T01:59:55.392Z,25.10
2022-08-07T02:02:32.882Z,25.09
2022-08-07T02:05:47.838Z,25.07
2022-08-07T02:08:11.102Z,25.07
2022-08-07T02:10:42.180Z,25.08
2022-08-07T02:13:09.548Z,25.08
2022-08-07T02:15:37.608Z,25.08
2022-08-07T02:18:04.575Z,25.07
2022-08-07T02:20:33.442Z,25.06
2022-08-07T02:23:02.686Z,25.06
2022-08-07T02:26:30.888Z,25.05
2022-08-07T02:28:24.403Z,25.05
2022-08-07T02:30:52.866Z,25.03
2022-08-07T02:33:20.102Z,25.03
2022-08-07T02:36:30.136Z,25.04
2022-08-07T02:38:36.943Z,25.03
2022-08-07T02:41:04.314Z,25.02
2022-08-07T02:43:31.232Z,25.03
2022-08-07T02:46:02.005Z,25.01
2022-08-07T02:48:29.941Z,25.00
2022-08-07T02:50:57.410Z,24.98
2022-08-07T02:53:31.300Z,24.99
2022-08-07T02:56:07.294Z,24.98
2022-08-07T02:58:47.002Z,24.97
2022-08-07T03:01:19.033Z,24.96
2022-08-07T03:04:03.507Z,24.95
2022-08-07T03:06:34.693Z,24.94
2022-08-07T03:09:02.389Z,24.94
2022-08-07T03:11:29.629Z,24.92
2022-08-07T03:14:01.909Z,24.93
2022-08-07T03:16:30.507Z,24.92
2022-08-07T03:18:58.215Z,24.92
2022-08-07T03:21:25.302Z,24.92
2022-08-07T03:24:17.943Z,24.92
2022-08-07T03:26:50.915Z,24.90
2022-08-07T03:29:27.595Z,24.91
2022-08-07T03:31:55.324Z,24.91
2022-08-07T03:34:22.979Z,24.91
2022-08-07T03:36:54.095Z,24.91
2022-08-07T03:39:58.882Z,24.91
2022-08-07T03:42:09.047Z,24.89
2022-08-07T03:44:36.457Z,24.88
2022-08-07T03:47:13.802Z,24.89
2022-08-07T03:49:48.062Z,24.89
2022-08-07T03:52:22.721Z,24.87
2022-08-07T03:54:54.827Z,24.86
2022-08-07T03:58:08.819Z,24.85
2022-08-07T04:00:12.408Z,24.84
2022-08-07T04:02:43.152Z,24.84
2022-08-07T04:05:14.134Z,24.84
2022-08-07T04:07:45.426Z,24.83
2022-08-07T04:10:15.758Z,24.84
2022-08-07T04:12:47.181Z,24.83
2022-08-07T04:15:15.004Z,24.81
2022-08-07T04:18:31.003Z,24.81
2022-08-07T04:20:29.405Z,24.81
2022-08-07T04:23:01.800Z,24.81
2022-08-07T04:25:29.192Z,24.78
2022-08-07T04:27:59.121Z,24.77
2022-08-07T04:30:39.498Z,24.78
2022-08-07T04:33:11.407Z,24.80
2022-08-07T04:35:40.737Z,24.83
2022-08-07T04:38:13.248Z,24.83
2022-08-07T04:40:51.378Z,24.83
2022-08-07T04:43:20.902Z,24.84
2022-08-07T04:46:06.376Z,24.84
2022-08-07T04:48:38.801Z,24.85
2022-08-07T04:51:05.211Z,24.85
2022-08-07T04:54:01.114Z,24.87
2022-08-07T04:58:11.093Z,24.88
2022-08-07T05:00:09.919Z,24.88
2022-08-07T05:02:11.330Z,24.88
2022-08-07T05:04:58.738Z,24.89
2022-08-07T05:07:36.547Z,24.87
2022-08-07T05:10:11.751Z,24.87
2022-08-07T05:12:52.787Z,24.88
2022-08-07T05:15:24.418Z,24.88
2022-08-07T05:17:57.698Z,24.87
2022-08-07T05:20:26.970Z,24.88
2022-08-07T05:22:56.699Z,24.90
2022-08-07T05:26:09.907Z,24.89
2022-08-07T05:28:21.274Z,24.91
2022-08-07T05:30:52.224Z,24.91
2022-08-07T05:33:21.339Z,24.93
2022-08-07T05:35:49.118Z,24.96
2022-08-07T05:39:01.105Z,24.97
2022-08-07T05:41:11.928Z,25.00
2022-08-07T05:44:01.553Z,25.01
2022-08-07T05:46:29.534Z,25.04
2022-08-07T05:48:59.520Z,25.05
2022-08-07T05:51:26.308Z,25.08
2022-08-07T05:54:13.913Z,25.12
2022-08-07T05:56:46.687Z,25.11
2022-08-07T05:59:18.366Z,25.15
2022-08-07T06:01:46.366Z,25.17
2022-08-07T06:04:15.106Z,25.19
2022-08-07T06:06:46.442Z,25.19
2022-08-07T06:09:15.363Z,25.20
2022-08-07T06:11:42.194Z,25.22
2022-08-07T06:14:11.921Z,25.24
2022-08-07T06:16:41.003Z,25.22
2022-08-07T06:19:08.114Z,25.22
2022-08-07T06:22:15.331Z,25.24
2022-08-07T06:24:45.794Z,25.26
2022-08-07T06:27:22.816Z,25.29
2022-08-07T06:30:24.247Z,25.28
2022-08-07T06:32:55.543Z,25.29
2022-08-07T06:35:22.003Z,25.30
2022-08-07T06:37:49.101Z,25.29
2022-08-07T06:40:21.293Z,25.28
2022-08-07T06:42:49.071Z,25.29
2022-08-07T06:45:18.315Z,25.33
2022-08-07T06:47:57.011Z,25.36
2022-08-07T06:50:24.809Z,25.34
2022-08-07T06:52:53.537Z,25.36
2022-08-07T06:55:54.120Z,25.36
2022-08-07T06:58:16.566Z,25.39
2022-08-07T07:00:44.236Z,25.40
2022-08-07T07:03:14.434Z,25.42
2022-08-07T07:06:03.450Z,25.43
2022-08-07T07:08:33.188Z,25.45
2022-08-07T07:11:00.769Z,25.46
2022-08-07T07:13:56.601Z,25.46
2022-08-07T07:16:27.556Z,25.49
2022-08-07T07:18:59.726Z,25.49
2022-08-07T07:21:40.285Z,25.48
2022-08-07T07:24:21.847Z,25.53
2022-08-07T07:26:51.883Z,25.53
2022-08-07T07:29:28.475Z,25.53
2022-08-07T07:32:07.912Z,25.56
2022-08-07T07:34:36.318Z,25.57
2022-08-07T07:37:22.116Z,25.59
2022-08-07T07:39:56.080Z,25.60
2022-08-07T07:42:32.570Z,25.62
2022-08-07T07:45:01.560Z,25.63
2022-08-07T07:47:29.463Z,25.63
2022-08-07T07:50:36.105Z,25.65
2022-08-07T07:52:46.978Z,25.68
2022-08-07T07:55:14.393Z,25.70
2022-08-07T07:57:52.476Z,25.72
2022-08-07T08:00:28.829Z,25.70
2022-08-07T08:03:04.953Z,25.73
2022-08-07T08:05:50.771Z,25.73
2022-08-07T08:08:35.262Z,25.74
2022-08-07T08:11:08.372Z,25.76
2022-08-07T08:13:53.437Z,25.79
2022-08-07T08:16:25.126Z,25.81
2022-08-07T08:18:54.917Z,25.82
2022-08-07T08:21:55.775Z,25.84
2022-08-07T08:24:48.015Z,25.83
2022-08-07T08:27:26.482Z,25.84
2022-08-07T08:30:07.822Z,25.85
2022-08-07T08:32:48.439Z,25.85
2022-08-07T08:35:20.095Z,25.88
2022-08-07T08:38:01.604Z,25.88
2022-08-07T08:40:36.041Z,25.90
2022-08-07T08:43:17.650Z,25.89
2022-08-07T08:45:59.210Z,25.90
2022-08-07T08:48:32.520Z,25.91
2022-08-07T08:51:14.642Z,25.92
2022-08-07T08:53:56.525Z,25.94
2022-08-07T08:56:27.315Z,25.93
2022-08-07T08:58:56.374Z,25.95
2022-08-07T09:01:40.084Z,25.94
2022-08-07T09:04:16.329Z,25.96
2022-08-07T09:06:56.880Z,25.95
2022-08-07T09:09:44.590Z,25.96
2022-08-07T09:12:31.637Z,25.96
2022-08-07T09:16:22.439Z,25.98
2022-08-07T09:18:22.503Z,25.97
2022-08-07T09:21:13.567Z,25.97
2022-08-07T09:24:31.268Z,25.97
2022-08-07T09:26:57.009Z,25.96
2022-08-07T09:30:06.114Z,25.96
2022-08-07T09:32:31.926Z,25.97
2022-08-07T09:35:04.833Z,25.95
2022-08-07T09:38:04.419Z,25.94
2022-08-07T09:40:50.205Z,25.94
2022-08-07T09:44:03.507Z,25.93
2022-08-07T09:47:50.444Z,25.93
2022-08-07T09:50:02.859Z,25.95
2022-08-07T09:52:33.893Z,25.96
2022-08-07T09:54:59.805Z,25.97
2022-08-07T09:57:38.617Z,25.99
2022-08-07T10:00:15.042Z,26.00
2022-08-07T10:02:55.652Z,26.00
2022-08-07T10:05:59.101Z,25.98
2022-08-07T10:08:46.901Z,25.96
2022-08-07T10:12:01.427Z,25.94
2022-08-07T10:14:31.147Z,25.95
2022-08-07T10:17:16.385Z,25.92
2022-08-07T10:19:49.034Z,25.92
2022-08-07T10:22:24.972Z,25.91
2022-08-07T10:25:10.869Z,25.89
2022-08-07T10:27:46.728Z,25.89
2022-08-07T10:30:27.374Z,25.89
2022-08-07T10:33:03.002Z,25.86
2022-08-07T10:35:56.373Z,25.86
2022-08-07T10:38:48.259Z,25.86
2022-08-07T10:41:46.461Z,25.84
2022-08-07T10:44:10.858Z,25.84
2022-08-07T10:47:06.143Z,25.84
2022-08-07T10:49:49.854Z,25.82
2022-08-07T10:52:51.218Z,25.83
2022-08-07T10:55:27.125Z,25.82
2022-08-07T10:58:13.962Z,25.82
2022-08-07T11:00:50.399Z,25.81
2022-08-07T11:03:37.657Z,25.81
2022-08-07T11:06:18.507Z,25.81
2022-08-07T11:09:00.571Z,25.83
2022-08-07T11:11:27.242Z,25.82
2022-08-07T11:14:45.197Z,25.82
2022-08-07T11:17:01.108Z,25.83
2022-08-07T11:19:35.034Z,25.82
2022-08-07T11:22:19.469Z,25.83
2022-08-07T11:25:06.854Z,25.80
2022-08-07T11:28:03.013Z,25.81
2022-08-07T11:30:41.841Z,25.80
2022-08-07T11:33:16.346Z,25.81
2022-08-07T11:35:58.923Z,25.81
2022-08-07T11:38:30.593Z,25.84
2022-08-07T11:40:59.469Z,25.85
2022-08-07T11:43:41.626Z,25.88
2022-08-07T11:46:26.661Z,25.90
2022-08-07T11:49:50.658Z,25.88
2022-08-07T11:52:07.608Z,25.88
2022-08-07T11:54:46.498Z,25.86
2022-08-07T11:58:00.253Z,25.85
2022-08-07T12:00:36.967Z,25.86
2022-08-07T12:03:41.348Z,25.85
2022-08-07T12:06:37.013Z,25.84
2022-08-07T12:09:01.829Z,25.83
2022-08-07T12:11:56.113Z,25.81
2022-08-07T12:14:29.802Z,25.82
2022-08-07T12:17:20.276Z,25.83
2022-08-07T12:20:08.832Z,25.84
2022-08-07T12:22:47.288Z,25.83
2022-08-07T12:26:22.419Z,25.85
2022-08-07T12:28:49.644Z,25.83
2022-08-07T12:31:53.208Z,25.83
2022-08-07T12:34:25.981Z,25.83
2022-08-07T12:36:53.914Z,25.83
2022-08-07T12:39:42.332Z,25.82
2022-08-07T12:42:13.357Z,25.82
2022-08-07T12:44:45.205Z,25.81
2022-08-07T12:47:32.101Z,25.80
2022-08-07T12:50:04.881Z,25.82
2022-08-07T12:52:59.383Z,25.81
2022-08-07T12:55:40.850Z,25.81
2022-08-07T12:58:09.879Z,25.81
2022-08-07T13:00:58.332Z,25.82
2022-08-07T13:03:59.178Z,25.80
2022-08-07T13:07:00.659Z,25.79
2022-08-07T13:10:19.500Z,25.79
2022-08-07T13:12:38.998Z,25.79
2022-08-07T13:15:14.328Z,25.79
2022-08-07T13:17:59.453Z,25.79
2022-08-07T13:20:33.534Z,25.77
2022-08-07T13:24:01.981Z,25.79
2022-08-07T13:26:07.389Z,25.78
2022-08-07T13:28:45.475Z,25.79
2022-08-07T13:31:22.811Z,25.78
2022-08-07T13:34:30.446Z,25.77
2022-08-07T13:36:49.009Z,25.78
2022-08-07T13:39:48.922Z,25.78
2022-08-07T13:42:21.659Z,25.78
2022-08-07T13:45:11.810Z,25.77
2022-08-07T13:48:06.149Z,25.77
2022-08-07T13:50:35.520Z,25.76
2022-08-07T13:53:19.445Z,25.75
2022-08-07T13:55:55.113Z,25.74
2022-08-07T13:58:42.782Z,25.73
2022-08-07T14:01:24.476Z,25.72
2022-08-07T14:04:07.658Z,25.70
2022-08-07T14:06:38.956Z,25.70
2022-08-07T14:09:06.477Z,25.69
2022-08-07T14:11:53.545Z,25.68
2022-08-07T14:14:50.442Z,25.68
2022-08-07T14:17:51.510Z,25.67
2022-08-07T14:20:42.841Z,25.67
2022-08-07T14:23:31.735Z,25.65
2022-08-07T14:26:11.256Z,25.64
2022-08-07T14:29:04.309Z,25.62
2022-08-07T14:31:42.996Z,25.62
2022-08-07T14:34:29.272Z,25.62
2022-08-07T14:36:58.085Z,25.61
2022-08-07T14:40:16.616Z,25.62
2022-08-07T14:45:21.393Z,25.63
2022-08-07T14:47:51.317Z,25.62
2022-08-07T14:50:26.310Z,25.62
2022-08-07T14:52:54.309Z,25.61
2022-08-07T14:55:21.904Z,25.63
2022-08-07T14:57:57.838Z,25.64
2022-08-07T15:00:30.251Z,25.63
2022-08-07T15:02:59.004Z,25.63
2022-08-07T15:05:26.814Z,25.66
2022-08-07T15:07:54.218Z,25.65
2022-08-07T15:10:26.006Z,25.64
2022-08-07T15:12:58.204Z,25.66
2022-08-07T15:15:29.733Z,25.66
2022-08-07T15:18:14.448Z,25.66
2022-08-07T15:20:56.168Z,25.66
2022-08-07T15:25:14.054Z,25.65
2022-08-07T15:26:22.322Z,25.65
2022-08-07T15:28:59.431Z,25.65
2022-08-07T15:32:00.886Z,25.63
2022-08-07T15:34:18.276Z,25.63
2022-08-07T15:37:04.605Z,25.62
2022-08-07T15:39:56.937Z,25.62
2022-08-07T15:42:47.830Z,25.61
2022-08-07T15:45:21.918Z,25.61
2022-08-07T15:51:09.374Z,25.59
2022-08-07T15:53:52.706Z,25.59
2022-08-07T15:56:24.095Z,25.58
2022-08-07T15:58:57.926Z,25.58
2022-08-07T16:01:38.700Z,25.58
2022-08-07T16:04:14.635Z,25.58
2022-08-07T16:06:51.008Z,25.56
2022-08-07T16:09:22.525Z,25.57
2022-08-07T16:11:52.451Z,25.57
2022-08-07T16:14:31.134Z,25.56
2022-08-07T16:18:01.550Z,25.56
2022-08-07T16:20:33.675Z,25.57
2022-08-07T16:23:54.000Z,25.56
2022-08-07T16:26:10.209Z,25.55
2022-08-07T16:29:18.415Z,25.56
2022-08-07T16:31:50.935Z,25.56
2022-08-07T16:34:48.637Z,25.55
2022-08-07T16:38:05.857Z,25.55
2022-08-07T16:40:06.059Z,25.54
2022-08-07T16:42:52.297Z,25.54
2022-08-07T16:46:33.694Z,25.54
2022-08-07T16:49:10.427Z,25.54
2022-08-07T16:52:50.975Z,25.53
2022-08-07T16:55:03.196Z,25.53
2022-08-07T16:58:02.827Z,25.52
2022-08-07T17:00:30.121Z,25.52
2022-08-07T17:03:17.829Z,25.53
2022-08-07T17:06:19.247Z,25.53
2022-08-07T17:09:14.299Z,25.54
2022-08-07T17:12:34.491Z,25.54
2022-08-07T17:15:03.584Z,25.54
2022-08-07T17:17:46.506Z,25.54
2022-08-07T17:20:30.930Z,25.53
2022-08-07T17:23:02.815Z,25.54
2022-08-07T17:25:51.548Z,25.53
2022-08-07T17:28:23.862Z,25.54
2022-08-07T17:30:58.648Z,25.54
2022-08-07T17:34:09.953Z,25.54
2022-08-07T17:36:20.438Z,25.53
2022-08-07T17:38:56.649Z,25.55
2022-08-07T17:42:01.720Z,25.55
2022-08-07T17:44:33.991Z,25.52
2022-08-07T17:47:41.811Z,25.52
2022-08-07T17:50:20.561Z,25.52
2022-08-07T17:52:55.217Z,25.52
2022-08-07T17:55:55.739Z,25.53
2022-08-07T17:58:31.106Z,25.52
2022-08-07T18:00:59.414Z,25.55
2022-08-07T18:03:28.826Z,25.53
2022-08-07T18:06:16.700Z,25.53
2022-08-07T18:09:06.116Z,25.54
2022-08-07T18:12:16.684Z,25.53
2022-08-07T18:14:28.099Z,25.53
2022-08-07T18:16:59.049Z,25.52
2022-08-07T18:21:10.316Z,25.53
2022-08-07T18:22:26.366Z,25.53
2022-08-07T18:25:01.736Z,25.52
2022-08-07T18:28:01.173Z,25.52
2022-08-07T18:30:37.889Z,25.51
2022-08-07T18:33:23.170Z,25.51
2022-08-07T18:36:16.782Z,25.50
2022-08-07T18:38:57.382Z,25.50
2022-08-07T18:41:44.892Z,25.50
2022-08-07T18:44:15.777Z,25.50
2022-08-07T18:47:01.717Z,25.49
2022-08-07T18:50:31.321Z,25.49
2022-08-07T18:52:53.776Z,25.49
2022-08-07T18:55:43.096Z,25.48
2022-08-07T18:58:23.657Z,25.41
2022-08-07T19:02:19.301Z,25.42
2022-08-07T19:04:35.826Z,25.41
2022-08-07T19:07:34.921Z,25.40
2022-08-07T19:10:09.978Z,25.39
2022-08-07T19:12:48.688Z,25.37
2022-08-07T19:16:02.479Z,25.37
2022-08-07T19:18:34.926Z,25.36
2022-08-07T19:21:44.018Z,25.37
2022-08-07T19:24:30.537Z,25.39
2022-08-07T19:28:57.462Z,25.40
2022-08-07T19:30:58.000Z,25.39
2022-08-07T19:32:45.579Z,25.40
2022-08-07T19:35:16.660Z,25.40
2022-08-07T19:37:56.392Z,25.40
2022-08-07T19:40:31.151Z,25.40
2022-08-07T19:42:59.906Z,25.39
2022-08-07T19:46:01.153Z,25.41
2022-08-07T19:48:24.131Z,25.43
2022-08-07T19:50:53.294Z,25.43
2022-08-07T19:54:31.101Z,25.41
2022-08-07T19:56:12.149Z,25.41
2022-08-07T19:58:50.429Z,25.41
2022-08-07T20:01:21.313Z,25.41
2022-08-07T20:03:49.091Z,25.41
2022-08-07T20:06:28.536Z,25.43
2022-08-07T20:09:01.784Z,25.43
2022-08-07T20:12:01.658Z,25.41
2022-08-07T20:14:23.217Z,25.44
2022-08-07T20:17:01.393Z,25.45
2022-08-07T20:19:47.993Z,25.45
2022-08-07T20:22:29.292Z,25.43
2022-08-07T20:25:06.239Z,25.45
2022-08-07T20:27:48.149Z,25.44
2022-08-07T20:30:22.559Z,25.44
2022-08-07T20:32:50.327Z,25.44
2022-08-07T20:35:26.066Z,25.43
2022-08-07T20:37:59.262Z,25.43
2022-08-07T20:40:32.613Z,25.43
2022-08-07T20:43:09.424Z,25.43
2022-08-07T20:46:28.566Z,25.43
2022-08-07T20:48:30.359Z,25.43
2022-08-07T20:51:04.763Z,25.44
2022-08-07T20:54:03.880Z,25.43
2022-08-07T20:56:26.080Z,25.42
2022-08-07T20:58:53.599Z,25.42
2022-08-07T21:01:24.057Z,25.43
2022-08-07T21:04:19.674Z,25.42
2022-08-07T21:06:46.635Z,25.42
2022-08-07T21:09:24.660Z,25.42
2022-08-07T21:12:01.317Z,25.43
2022-08-07T21:14:33.986Z,25.43
2022-08-07T21:18:01.145Z,25.42
2022-08-07T21:20:00.826Z,25.41
2022-08-07T21:22:34.283Z,25.39
2022-08-07T21:25:12.066Z,25.39
2022-08-07T21:27:54.655Z,25.40
2022-08-07T21:30:45.492Z,25.38
2022-08-07T21:33:14.272Z,25.38
2022-08-07T21:36:06.547Z,25.37
2022-08-07T21:38:38.203Z,25.37
2022-08-07T21:41:24.626Z,25.39
2022-08-07T21:44:07.030Z,25.37
2022-08-07T21:46:41.623Z,25.38
2022-08-07T21:50:01.853Z,25.37
2022-08-07T21:52:44.877Z,25.40
2022-08-07T21:55:19.249Z,25.39
2022-08-07T21:58:29.912Z,25.39
2022-08-07T22:01:00.225Z,25.41
2022-08-07T22:03:37.851Z,25.37
2022-08-07T22:06:07.853Z,25.35
2022-08-07T22:09:02.779Z,25.37
2022-08-07T22:12:04.890Z,25.35
2022-08-07T22:14:23.718Z,25.34
2022-08-07T22:17:03.955Z,25.33
2022-08-07T22:19:41.658Z,25.36
2022-08-07T22:22:21.328Z,25.36
2022-08-07T22:25:11.017Z,25.36
2022-08-07T22:28:19.993Z,25.36
2022-08-07T22:31:04.926Z,25.36
2022-08-07T22:33:57.181Z,25.32
2022-08-07T22:36:35.505Z,25.24
2022-08-07T22:39:08.474Z,25.20
2022-08-07T22:42:03.736Z,25.21
2022-08-07T22:44:32.777Z,25.24
2022-08-07T22:47:04.520Z,25.21
2022-08-07T22:49:56.406Z,25.16
2022-08-07T22:52:37.643Z,25.13
2022-08-07T22:55:30.149Z,25.09
2022-08-07T22:58:15.653Z,25.13
2022-08-07T23:00:51.422Z,25.16
2022-08-07T23:03:20.884Z,25.19
2022-08-07T23:06:14.752Z,25.21
2022-08-07T23:08:55.951Z,25.22
2022-08-07T23:11:28.213Z,25.20
2022-08-07T23:14:30.451Z,25.18
2022-08-07T23:16:58.311Z,25.20
2022-08-07T23:19:59.823Z,25.22
2022-08-07T23:22:35.210Z,25.22
2022-08-07T23:25:07.479Z,25.23
2022-08-07T23:28:22.618Z,25.23
2022-08-07T23:30:46.691Z,25.24
2022-08-07T23:34:35.915Z,25.24
2022-08-07T23:36:33.242Z,25.23
2022-08-07T23:39:21.993Z,25.23
2022-08-07T23:42:05.107Z,25.22
2022-08-07T23:44:51.354Z,25.22
2022-08-07T23:47:22.737Z,25.22
2022-08-07T23:49:52.737Z,25.22
2022-08-07T23:53:02.037Z,25.22
2022-08-07T23:55:52.026Z,25.22
2022-08-07T23:58:18.453Z,25.20
